createdAt,value
2023-05-10T00:00:06.309Z,2093.00
2023-05-10T00:01:06.359Z,2082.00
2023-05-10T00:02:06.352Z,2088.00
2023-05-10T00:03:06.516Z,2090.00
2023-05-10T00:04:06.411Z,2091.00
2023-05-10T00:05:06.483Z,2078.00
2023-05-10T00:06:06.460Z,2094.00
2023-05-10T00:07:06.470Z,2093.00
2023-05-10T00:08:06.540Z,2083.00
2023-05-10T00:09:06.500Z,2074.00
2023-05-10T00:10:06.497Z,2085.00
2023-05-10T00:11:06.535Z,2080.00
2023-05-10T00:12:06.518Z,2078.00
2023-05-10T00:13:06.594Z,2079.00
2023-05-10T00:14:06.561Z,2078.00
2023-05-10T00:15:06.562Z,2084.00
2023-05-10T00:16:06.657Z,2067.00
2023-05-10T00:17:06.617Z,2072.00
2023-05-10T00:18:06.671Z,2080.00
2023-05-10T00:19:06.654Z,2076.00
2023-05-10T00:20:06.696Z,2081.00
2023-05-10T00:21:06.675Z,2074.00
2023-05-10T00:22:06.691Z,2078.00
2023-05-10T00:23:06.724Z,2071.00
2023-05-10T00:24:06.740Z,2066.00
2023-05-10T00:25:06.735Z,2065.00
2023-05-10T00:26:06.738Z,2071.00
2023-05-10T00:27:06.751Z,2062.00
2023-05-10T00:28:06.757Z,2069.00
2023-05-10T00:29:06.756Z,2069.00
2023-05-10T00:30:06.763Z,2084.00
2023-05-10T00:31:06.790Z,2073.00
2023-05-10T00:32:06.854Z,2071.00
2023-05-10T00:33:06.842Z,2070.00
2023-05-10T00:34:06.809Z,2073.00
2023-05-10T00:35:06.839Z,2065.00
2023-05-10T00:36:06.834Z,2067.00
2023-05-10T00:37:06.820Z,2079.00
2023-05-10T00:38:06.809Z,2074.00
2023-05-10T00:39:06.840Z,2069.00
2023-05-10T00:40:06.836Z,2086.00
2023-05-10T00:41:06.844Z,2077.00
2023-05-10T00:42:06.824Z,2087.00
2023-05-10T00:43:06.818Z,2081.00
2023-05-10T00:44:06.849Z,2073.00
2023-05-10T00:45:06.828Z,2064.00
2023-05-10T00:46:06.884Z,2082.00
2023-05-10T00:47:06.843Z,2080.00
2023-05-10T00:48:06.911Z,2093.00
2023-05-10T00:49:06.855Z,2063.00
2023-05-10T00:50:06.832Z,2068.00
2023-05-10T00:51:06.837Z,2075.00
2023-05-10T00:52:06.846Z,2083.00
2023-05-10T00:53:06.880Z,2084.00
2023-05-10T00:54:06.885Z,2069.00
2023-05-10T00:55:06.859Z,2059.00
2023-05-10T00:56:06.911Z,2051.00
2023-05-10T00:57:06.849Z,2056.00
2023-05-10T00:58:06.872Z,2052.00
2023-05-10T00:59:06.861Z,2055.00
2023-05-10T01:00:06.877Z,2055.00
2023-05-10T01:01:06.924Z,2026.00
2023-05-10T01:02:06.904Z,2026.00
2023-05-10T01:03:07.057Z,2038.00
2023-05-10T01:04:06.870Z,2031.00
2023-05-10T01:05:06.904Z,2044.00
2023-05-10T01:06:06.859Z,2024.00
2023-05-10T01:07:06.912Z,2030.00
2023-05-10T01:08:06.901Z,2044.00
2023-05-10T01:09:06.904Z,2039.00
2023-05-10T01:10:06.935Z,2038.00
2023-05-10T01:11:06.902Z,2043.00
2023-05-10T01:12:06.928Z,2031.00
2023-05-10T01:13:06.934Z,2035.00
2023-05-10T01:14:06.927Z,2036.00
2023-05-10T01:15:06.985Z,2045.00
2023-05-10T01:16:06.939Z,2043.00
2023-05-10T01:17:06.942Z,2026.00
2023-05-10T01:18:06.927Z,2041.00
2023-05-10T01:19:06.941Z,2047.00
2023-05-10T01:20:06.950Z,2045.00
2023-05-10T01:21:06.954Z,2032.00
2023-05-10T01:22:06.946Z,2039.00
2023-05-10T01:23:06.983Z,2032.00
2023-05-10T01:24:07.007Z,2018.00
2023-05-10T01:25:07.009Z,2033.00
2023-05-10T01:26:07.035Z,2030.00
2023-05-10T01:27:07.080Z,2049.00
2023-05-10T01:28:07.110Z,2036.00
2023-05-10T01:29:07.100Z,2032.00
2023-05-10T01:30:15.467Z,2018.00
2023-05-10T01:31:08.154Z,2019.00
2023-05-10T01:32:07.124Z,2023.00
2023-05-10T01:33:07.162Z,2024.00
2023-05-10T01:34:07.091Z,2031.00
2023-05-10T01:35:07.092Z,2042.00
2023-05-10T01:36:07.080Z,2037.00
2023-05-10T01:37:07.099Z,2039.00
2023-05-10T01:38:07.107Z,2046.00
2023-05-10T01:39:07.057Z,2040.00
2023-05-10T01:40:07.032Z,2042.00
2023-05-10T01:41:07.036Z,2047.00
2023-05-10T01:42:07.037Z,2031.00
2023-05-10T01:43:07.050Z,2037.00
2023-05-10T01:44:07.024Z,2030.00
2023-05-10T01:45:07.025Z,2043.00
2023-05-10T01:46:07.006Z,2030.00
2023-05-10T01:47:06.968Z,2036.00
2023-05-10T01:48:07.107Z,2047.00
2023-05-10T01:49:07.016Z,2039.00
2023-05-10T01:50:06.990Z,2025.00
2023-05-10T01:51:06.989Z,2045.00
2023-05-10T01:52:06.943Z,2015.00
2023-05-10T01:53:06.960Z,2049.00
2023-05-10T01:54:06.953Z,2031.00
2023-05-10T01:55:06.919Z,2034.00
2023-05-10T01:56:06.937Z,2045.00
2023-05-10T01:57:06.931Z,2030.00
2023-05-10T01:58:06.916Z,2028.00
2023-05-10T01:59:06.926Z,2020.00
2023-05-10T02:00:06.891Z,2032.00
2023-05-10T02:01:06.956Z,2038.00
2023-05-10T02:02:06.934Z,2026.00
2023-05-10T02:03:06.965Z,2026.00
2023-05-10T02:04:06.981Z,2029.00
2023-05-10T02:05:06.924Z,2029.00
2023-05-10T02:06:06.986Z,2025.00
2023-05-10T02:07:06.989Z,2028.00
2023-05-10T02:08:06.991Z,2037.00
2023-05-10T02:09:06.979Z,2031.00
2023-05-10T02:10:07.033Z,2029.00
2023-05-10T02:11:07.039Z,2024.00
2023-05-10T02:12:07.037Z,2024.00
2023-05-10T02:13:07.120Z,2028.00
2023-05-10T02:14:07.056Z,2014.00
2023-05-10T02:15:07.059Z,2031.00
2023-05-10T02:16:07.121Z,2020.00
2023-05-10T02:17:07.086Z,2027.00
2023-05-10T02:18:07.272Z,2010.00
2023-05-10T02:19:07.120Z,2027.00
2023-05-10T02:20:07.131Z,2017.00
2023-05-10T02:21:07.106Z,2021.00
2023-05-10T02:22:07.107Z,2025.00
2023-05-10T02:23:07.154Z,2024.00
2023-05-10T02:24:07.127Z,2019.00
2023-05-10T02:25:07.157Z,2020.00
2023-05-10T02:26:07.189Z,2029.00
2023-05-10T02:27:07.226Z,2020.00
2023-05-10T02:28:07.223Z,2009.00
2023-05-10T02:29:07.191Z,2013.00
2023-05-10T02:30:07.223Z,2022.00
2023-05-10T02:31:07.254Z,2024.00
2023-05-10T02:32:07.338Z,2002.00
2023-05-10T02:33:07.379Z,2011.00
2023-05-10T02:34:07.310Z,2015.00
2023-05-10T02:35:07.327Z,2020.00
2023-05-10T02:36:07.632Z,2022.00
2023-05-10T02:37:07.324Z,2011.00
2023-05-10T02:38:07.350Z,2010.00
2023-05-10T02:39:07.346Z,2009.00
2023-05-10T02:40:07.374Z,2028.00
2023-05-10T02:41:07.408Z,2006.00
2023-05-10T02:42:07.393Z,1994.00
2023-05-10T02:43:07.389Z,2026.00
2023-05-10T02:44:07.403Z,2026.00
2023-05-10T02:45:07.456Z,2013.00
2023-05-10T02:46:07.486Z,2024.00
2023-05-10T02:47:07.495Z,2034.00
2023-05-10T02:48:07.542Z,2020.00
2023-05-10T02:49:07.501Z,2020.00
2023-05-10T02:50:07.546Z,2013.00
2023-05-10T02:51:07.556Z,2034.00
2023-05-10T02:52:07.565Z,2027.00
2023-05-10T02:53:07.596Z,2028.00
2023-05-10T02:54:07.597Z,2015.00
2023-05-10T02:55:07.601Z,2017.00
2023-05-10T02:56:07.667Z,2025.00
2023-05-10T02:57:07.628Z,2026.00
2023-05-10T02:58:07.680Z,2021.00
2023-05-10T02:59:07.672Z,2015.00
2023-05-10T03:00:07.702Z,2007.00
2023-05-10T03:01:07.738Z,2014.00
2023-05-10T03:02:07.730Z,2013.00
2023-05-10T03:03:07.793Z,2003.00
2023-05-10T03:04:07.775Z,2008.00
2023-05-10T03:05:07.813Z,2003.00
2023-05-10T03:06:07.819Z,2003.00
2023-05-10T03:07:07.788Z,1997.00
2023-05-10T03:08:07.821Z,2004.00
2023-05-10T03:09:07.906Z,2025.00
2023-05-10T03:10:07.919Z,1994.00
2023-05-10T03:11:07.914Z,2007.00
2023-05-10T03:12:07.964Z,2011.00
2023-05-10T03:13:08.036Z,2001.00
2023-05-10T03:14:08.001Z,2001.00
2023-05-10T03:15:08.019Z,1998.00
2023-05-10T03:16:08.130Z,1999.00
2023-05-10T03:17:08.082Z,2003.00
2023-05-10T03:18:08.116Z,1990.00
2023-05-10T03:19:08.147Z,2003.00
2023-05-10T03:20:08.171Z,2014.00
2023-05-10T03:21:08.155Z,2003.00
2023-05-10T03:22:08.191Z,2001.00
2023-05-10T03:23:08.196Z,2009.00
2023-05-10T03:24:08.202Z,1992.00
2023-05-10T03:25:08.274Z,2005.00
2023-05-10T03:26:08.249Z,1999.00
2023-05-10T03:27:08.301Z,2006.00
2023-05-10T03:28:08.341Z,2010.00
2023-05-10T03:29:08.411Z,2002.00
2023-05-10T03:30:08.368Z,1999.00
2023-05-10T03:31:08.435Z,1998.00
2023-05-10T03:32:08.398Z,1998.00
2023-05-10T03:33:08.419Z,1998.00
2023-05-10T03:34:08.489Z,2001.00
2023-05-10T03:35:08.482Z,2009.00
2023-05-10T03:36:08.461Z,1996.00
2023-05-10T03:37:08.509Z,1990.00
2023-05-10T03:38:08.514Z,1971.00
2023-05-10T03:39:08.577Z,1983.00
2023-05-10T03:40:08.602Z,1993.00
2023-05-10T03:41:08.632Z,1993.00
2023-05-10T03:42:08.613Z,1995.00
2023-05-10T03:43:08.658Z,1983.00
2023-05-10T03:44:08.645Z,1992.00
2023-05-10T03:45:08.708Z,1998.00
2023-05-10T03:46:08.745Z,1991.00
2023-05-10T03:47:09.062Z,2007.00
2023-05-10T03:48:08.790Z,1989.00
2023-05-10T03:49:08.754Z,2001.00
2023-05-10T03:50:08.806Z,2004.00
2023-05-10T03:51:08.803Z,1998.00
2023-05-10T03:52:08.844Z,1997.00
2023-05-10T03:53:08.888Z,1995.00
2023-05-10T03:54:08.862Z,1997.00
2023-05-10T03:55:08.918Z,1989.00
2023-05-10T03:56:08.945Z,1984.00
2023-05-10T03:57:08.946Z,2001.00
2023-05-10T03:58:08.953Z,2000.00
2023-05-10T03:59:08.995Z,2002.00
2023-05-10T04:00:08.998Z,1996.00
2023-05-10T04:01:09.111Z,1987.00
2023-05-10T04:02:09.130Z,1983.00
2023-05-10T04:03:09.154Z,1984.00
2023-05-10T04:04:09.110Z,1989.00
2023-05-10T04:05:09.100Z,1964.00
2023-05-10T04:06:09.193Z,1923.00
2023-05-10T04:07:09.185Z,1893.00
2023-05-10T04:08:09.238Z,1869.00
2023-05-10T04:09:09.200Z,1841.00
2023-05-10T04:10:09.206Z,1836.00
2023-05-10T04:11:09.250Z,1802.00
2023-05-10T04:12:10.864Z,1782.00
2023-05-10T04:13:09.344Z,1778.00
2023-05-10T04:14:09.326Z,1758.00
2023-05-10T04:15:09.376Z,1748.00
2023-05-10T04:16:09.448Z,1728.00
2023-05-10T04:17:09.536Z,1715.00
2023-05-10T04:18:09.566Z,1689.00
2023-05-10T04:19:09.652Z,1681.00
2023-05-10T04:20:09.654Z,1685.00
2023-05-10T04:21:09.741Z,1681.00
2023-05-10T04:22:09.760Z,1682.00
2023-05-10T04:23:09.799Z,1634.00
2023-05-10T04:24:09.883Z,1652.00
2023-05-10T04:25:09.912Z,1654.00
2023-05-10T04:26:09.968Z,1647.00
2023-05-10T04:27:10.046Z,1639.00
2023-05-10T04:28:10.098Z,1625.00
2023-05-10T04:29:10.097Z,1607.00
2023-05-10T04:30:10.164Z,1605.00
2023-05-10T04:31:10.219Z,1587.00
2023-05-10T04:32:10.321Z,1531.00
2023-05-10T04:33:10.315Z,1536.00
2023-05-10T04:34:10.388Z,1548.00
2023-05-10T04:35:10.444Z,1531.00
2023-05-10T04:36:10.514Z,1544.00
2023-05-10T04:37:10.655Z,1552.00
2023-05-10T04:38:10.662Z,1540.00
2023-05-10T04:39:10.667Z,1579.00
2023-05-10T04:40:10.722Z,1566.00
2023-05-10T04:41:10.795Z,1586.00
2023-05-10T04:42:10.850Z,1589.00
2023-05-10T04:43:10.901Z,1603.00
2023-05-10T04:44:10.973Z,1622.00
2023-05-10T04:45:11.003Z,1617.00
2023-05-10T04:46:11.107Z,1623.00
2023-05-10T04:47:12.777Z,1614.00
2023-05-10T04:48:11.181Z,1620.00
2023-05-10T04:49:11.201Z,1639.00
2023-05-10T04:50:11.297Z,1642.00
2023-05-10T04:51:11.321Z,1651.00
2023-05-10T04:52:11.406Z,1635.00
2023-05-10T04:53:11.431Z,1657.00
2023-05-10T04:54:11.552Z,1647.00
2023-05-10T04:55:11.602Z,1647.00
2023-05-10T04:56:11.633Z,1663.00
2023-05-10T04:57:11.669Z,1649.00
2023-05-10T04:58:11.722Z,1670.00
2023-05-10T04:59:11.792Z,1691.00
2023-05-10T05:00:11.838Z,1686.00
2023-05-10T05:01:11.925Z,1690.00
2023-05-10T05:02:11.934Z,1686.00
2023-05-10T05:03:12.096Z,1682.00
2023-05-10T05:04:12.076Z,1663.00
2023-05-10T05:05:12.075Z,1683.00
2023-05-10T05:06:12.127Z,1693.00
2023-05-10T05:07:12.172Z,1695.00
2023-05-10T05:08:12.221Z,1693.00
2023-05-10T05:09:12.298Z,1696.00
2023-05-10T05:10:12.315Z,1708.00
2023-05-10T05:11:12.375Z,1684.00
2023-05-10T05:12:12.438Z,1684.00
2023-05-10T05:13:12.575Z,1690.00
2023-05-10T05:14:12.531Z,1703.00
2023-05-10T05:15:12.555Z,1699.00
2023-05-10T05:16:12.688Z,1699.00
2023-05-10T05:17:12.631Z,1691.00
2023-05-10T05:18:12.732Z,1682.00
2023-05-10T05:19:12.757Z,1697.00
2023-05-10T05:20:12.759Z,1689.00
2023-05-10T05:21:12.808Z,1700.00
2023-05-10T05:22:12.854Z,1690.00
2023-05-10T05:23:12.864Z,1701.00
2023-05-10T05:24:12.922Z,1691.00
2023-05-10T05:25:13.001Z,1683.00
2023-05-10T05:26:13.012Z,1690.00
2023-05-10T05:27:13.022Z,1682.00
2023-05-10T05:28:13.060Z,1691.00
2023-05-10T05:29:13.120Z,1679.00
2023-05-10T05:30:13.167Z,1678.00
2023-05-10T05:31:13.230Z,1672.00
2023-05-10T05:32:13.395Z,1692.00
2023-05-10T05:33:13.328Z,1673.00
2023-05-10T05:34:13.358Z,1672.00
2023-05-10T05:35:13.408Z,1628.00
2023-05-10T05:36:13.424Z,1652.00
2023-05-10T05:37:13.470Z,1653.00
2023-05-10T05:38:13.521Z,1647.00
2023-05-10T05:39:13.600Z,1651.00
2023-05-10T05:40:13.675Z,1645.00
2023-05-10T05:41:13.654Z,1661.00
2023-05-10T05:42:13.712Z,1639.00
2023-05-10T05:43:13.764Z,1664.00
2023-05-10T05:44:13.753Z,1649.00
2023-05-10T05:45:13.967Z,1646.00
2023-05-10T05:46:13.840Z,1645.00
2023-05-10T05:47:13.851Z,1661.00
2023-05-10T05:48:13.843Z,1653.00
2023-05-10T05:49:13.911Z,1670.00
2023-05-10T05:50:13.950Z,1659.00
2023-05-10T05:51:13.979Z,1676.00
2023-05-10T05:52:13.985Z,1696.00
2023-05-10T05:53:13.996Z,1706.00
2023-05-10T05:54:14.006Z,1715.00
2023-05-10T05:55:14.115Z,1703.00
2023-05-10T05:56:14.045Z,1688.00
2023-05-10T05:57:14.065Z,1688.00
2023-05-10T05:58:14.061Z,1674.00
2023-05-10T05:59:14.070Z,1679.00
2023-05-10T06:00:14.099Z,1651.00
2023-05-10T06:01:14.104Z,1657.00
2023-05-10T06:02:14.169Z,1657.00
2023-05-10T06:03:14.227Z,1634.00
2023-05-10T06:04:14.155Z,1631.00
2023-05-10T06:05:14.441Z,1637.00
2023-05-10T06:06:14.145Z,1599.00
2023-05-10T06:07:14.155Z,1614.00
2023-05-10T06:08:14.139Z,1605.00
2023-05-10T06:09:14.210Z,1596.00
2023-05-10T06:10:14.164Z,1592.00
2023-05-10T06:11:14.244Z,1591.00
2023-05-10T06:12:14.192Z,1571.00
2023-05-10T06:13:14.212Z,1569.00
2023-05-10T06:14:14.174Z,1587.00
2023-05-10T06:15:14.336Z,1596.00
2023-05-10T06:16:14.253Z,1607.00
2023-05-10T06:17:14.180Z,1596.00
2023-05-10T06:18:14.237Z,1613.00
2023-05-10T06:19:14.175Z,1611.00
2023-05-10T06:20:14.212Z,1601.00
2023-05-10T06:21:14.159Z,1609.00
2023-05-10T06:22:14.183Z,1599.00
2023-05-10T06:23:14.156Z,1620.00
2023-05-10T06:24:14.170Z,1619.00
2023-05-10T06:25:14.323Z,1593.00
2023-05-10T06:26:14.192Z,1611.00
2023-05-10T06:27:14.189Z,1615.00
2023-05-10T06:28:14.215Z,1614.00
2023-05-10T06:29:14.180Z,1628.00
2023-05-10T06:30:14.186Z,1654.00
2023-05-10T06:31:14.194Z,1658.00
2023-05-10T06:32:14.198Z,1670.00
2023-05-10T06:33:14.248Z,1674.00
2023-05-10T06:34:14.273Z,1659.00
2023-05-10T06:35:14.336Z,1695.00
2023-05-10T06:36:14.393Z,1700.00
2023-05-10T06:37:14.364Z,1684.00
2023-05-10T06:38:14.363Z,1682.00
2023-05-10T06:39:14.396Z,1651.00
2023-05-10T06:40:14.457Z,1570.00
2023-05-10T06:41:14.461Z,1466.00
2023-05-10T06:42:14.464Z,1363.00
2023-05-10T06:43:14.473Z,1380.00
2023-05-10T06:44:14.732Z,1397.00
2023-05-10T06:45:14.886Z,1442.00
2023-05-10T06:46:14.660Z,1458.00
2023-05-10T06:47:14.641Z,1470.00
2023-05-10T06:48:14.687Z,1482.00
2023-05-10T06:49:14.724Z,1499.00
2023-05-10T06:50:14.735Z,1501.00
2023-05-10T06:51:14.739Z,1541.00
2023-05-10T06:52:14.768Z,1548.00
2023-05-10T06:53:14.749Z,1547.00
2023-05-10T06:54:14.793Z,1578.00
2023-05-10T06:55:14.960Z,1555.00
2023-05-10T06:56:14.752Z,1588.00
2023-05-10T06:57:27.642Z,1597.00
2023-05-10T06:58:15.764Z,1599.00
2023-05-10T06:59:14.799Z,1607.00
2023-05-10T07:00:14.885Z,1620.00
2023-05-10T07:01:14.930Z,1646.00
2023-05-10T07:02:14.821Z,1675.00
2023-05-10T07:03:14.746Z,1674.00
2023-05-10T07:04:14.809Z,1666.00
2023-05-10T07:05:14.741Z,1665.00
2023-05-10T07:06:29.408Z,1665.00
2023-05-10T07:07:15.713Z,1668.00
2023-05-10T07:08:14.713Z,1672.00
2023-05-10T07:09:14.740Z,1685.00
2023-05-10T07:10:14.697Z,1706.00
2023-05-10T07:11:14.660Z,1711.00
2023-05-10T07:12:15.660Z,1716.00
2023-05-10T07:13:14.802Z,1711.00
2023-05-10T07:14:14.647Z,1710.00
2023-05-10T07:15:14.954Z,1697.00
2023-05-10T07:16:14.720Z,1702.00
2023-05-10T07:17:14.691Z,1689.00
2023-05-10T07:18:14.808Z,1688.00
2023-05-10T07:19:15.255Z,1708.00
2023-05-10T07:20:14.927Z,1704.00
2023-05-10T07:21:15.033Z,1722.00
2023-05-10T07:22:15.047Z,1706.00
2023-05-10T07:23:15.095Z,1704.00
2023-05-10T07:24:15.131Z,1696.00
2023-05-10T07:25:15.330Z,1695.00
2023-05-10T07:26:15.258Z,1710.00
2023-05-10T07:27:15.310Z,1703.00
2023-05-10T07:28:15.352Z,1706.00
2023-05-10T07:29:15.430Z,1729.00
2023-05-10T07:30:15.504Z,1731.00
2023-05-10T07:31:15.492Z,1733.00
2023-05-10T07:32:15.697Z,1758.00
2023-05-10T07:33:15.686Z,1759.00
2023-05-10T07:34:15.695Z,1716.00
2023-05-10T07:35:15.911Z,1728.00
2023-05-10T07:36:16.248Z,1749.00
2023-05-10T07:37:15.829Z,1750.00
2023-05-10T07:38:15.915Z,1757.00
2023-05-10T07:39:21.394Z,1792.00
2023-05-10T07:40:16.971Z,1794.00
2023-05-10T07:41:16.273Z,1803.00
2023-05-10T07:42:15.917Z,1820.00
2023-05-10T07:43:15.878Z,1855.00
2023-05-10T07:44:15.906Z,1913.00
2023-05-10T07:45:16.094Z,1917.00
2023-05-10T07:46:15.903Z,1906.00
2023-05-10T07:47:15.878Z,1908.00
2023-05-10T07:48:15.907Z,1861.00
2023-05-10T07:49:15.868Z,1862.00
2023-05-10T07:50:15.839Z,1877.00
2023-05-10T07:51:15.849Z,1880.00
2023-05-10T07:52:16.135Z,1872.00
2023-05-10T07:53:15.826Z,1864.00
2023-05-10T07:54:15.824Z,1860.00
2023-05-10T07:55:16.044Z,1849.00
2023-05-10T07:56:15.864Z,1857.00
2023-05-10T07:57:15.904Z,1861.00
2023-05-10T07:58:15.955Z,1849.00
2023-05-10T07:59:15.997Z,1882.00
2023-05-10T08:00:16.008Z,1865.00
2023-05-10T08:01:16.033Z,1868.00
2023-05-10T08:02:16.137Z,1837.00
2023-05-10T08:03:16.331Z,1850.00
2023-05-10T08:04:16.225Z,1857.00
2023-05-10T08:05:16.470Z,1851.00
2023-05-10T08:06:16.216Z,1846.00
2023-05-10T08:07:16.247Z,1863.00
2023-05-10T08:08:16.227Z,1868.00
2023-05-10T08:09:16.266Z,1833.00
2023-05-10T08:10:16.277Z,1842.00
2023-05-10T08:11:16.279Z,1861.00
2023-05-10T08:12:16.345Z,1860.00
2023-05-10T08:13:16.801Z,1810.00
2023-05-10T08:14:16.406Z,1623.00
2023-05-10T08:15:16.685Z,1497.00
2023-05-10T08:16:16.564Z,1408.00
2023-05-10T08:17:17.332Z,1379.00
2023-05-10T08:18:16.811Z,1368.00
2023-05-10T08:19:16.639Z,1349.00
2023-05-10T08:20:16.681Z,1319.00
2023-05-10T08:21:16.768Z,1229.00
2023-05-10T08:22:16.695Z,1182.00
2023-05-10T08:23:16.745Z,1130.00
2023-05-10T08:24:16.717Z,1185.00
2023-05-10T08:25:16.863Z,1180.00
2023-05-10T08:26:16.777Z,1127.00
2023-05-10T08:27:16.785Z,1093.00
2023-05-10T08:28:16.842Z,1125.00
2023-05-10T08:29:16.825Z,1200.00
2023-05-10T08:30:16.880Z,1208.00
2023-05-10T08:31:16.974Z,1230.00
2023-05-10T08:32:16.921Z,1156.00
2023-05-10T08:33:16.910Z,1103.00
2023-05-10T08:34:16.960Z,1085.00
2023-05-10T08:35:17.214Z,1083.00
2023-05-10T08:36:17.026Z,1068.00
2023-05-10T08:37:17.134Z,1094.00
2023-05-10T08:38:17.153Z,1041.00
2023-05-10T08:39:29.383Z,1045.00
2023-05-10T08:40:18.173Z,1047.00
2023-05-10T08:41:17.207Z,1048.00
2023-05-10T08:42:17.132Z,1073.00
2023-05-10T08:43:17.105Z,1108.00
2023-05-10T08:44:17.117Z,1227.00
2023-05-10T08:45:17.311Z,1247.00
2023-05-10T08:46:17.151Z,1264.00
2023-05-10T08:47:17.106Z,1284.00
2023-05-10T08:48:17.109Z,1300.00
2023-05-10T08:49:17.136Z,1296.00
2023-05-10T08:50:17.086Z,1311.00
2023-05-10T08:51:17.288Z,1305.00
2023-05-10T08:52:17.057Z,1308.00
2023-05-10T08:53:17.065Z,1293.00
2023-05-10T08:54:17.055Z,1297.00
2023-05-10T08:55:17.234Z,1305.00
2023-05-10T08:56:17.065Z,1304.00
2023-05-10T08:57:17.045Z,1296.00
2023-05-10T08:58:17.301Z,1282.00
2023-05-10T08:59:17.092Z,1249.00
2023-05-10T09:00:17.133Z,1232.00
2023-05-10T09:01:17.303Z,1234.00
2023-05-10T09:02:18.804Z,1233.00
2023-05-10T09:03:17.274Z,1216.00
2023-05-10T09:04:17.357Z,1223.00
2023-05-10T09:05:17.494Z,1203.00
2023-05-10T09:06:17.379Z,1204.00
2023-05-10T09:07:17.433Z,1189.00
2023-05-10T09:08:17.559Z,1153.00
2023-05-10T09:09:17.463Z,1164.00
2023-05-10T09:10:17.505Z,1182.00
2023-05-10T09:11:17.519Z,1158.00
2023-05-10T09:12:17.544Z,1168.00
2023-05-10T09:13:17.544Z,1183.00
2023-05-10T09:14:17.588Z,1217.00
2023-05-10T09:15:17.807Z,1247.00
2023-05-10T09:16:21.566Z,1247.00
2023-05-10T09:17:17.693Z,1238.00
2023-05-10T09:18:17.685Z,1245.00
2023-05-10T09:19:17.611Z,1248.00
2023-05-10T09:20:17.634Z,1244.00
2023-05-10T09:21:17.670Z,1231.00
2023-05-10T09:22:17.576Z,1205.00
2023-05-10T09:23:17.588Z,1205.00
2023-05-10T09:24:17.564Z,1180.00
2023-05-10T09:25:17.971Z,1199.00
2023-05-10T09:26:17.545Z,1213.00
2023-05-10T09:27:17.841Z,1191.00
2023-05-10T09:28:17.555Z,1146.00
2023-05-10T09:29:17.990Z,1130.00
2023-05-10T09:30:17.562Z,1097.00
2023-05-10T09:31:17.592Z,1114.00
2023-05-10T09:32:17.565Z,1145.00
2023-05-10T09:33:17.871Z,1147.00
2023-05-10T09:34:17.506Z,1136.00
2023-05-10T09:35:17.760Z,1102.00
2023-05-10T09:36:17.510Z,1094.00
2023-05-10T09:37:17.485Z,1145.00
2023-05-10T09:38:17.515Z,1169.00
2023-05-10T09:39:17.804Z,1186.00
2023-05-10T09:40:18.280Z,1242.00
2023-05-10T09:41:17.470Z,1243.00
2023-05-10T09:42:17.470Z,1276.00
2023-05-10T09:43:17.433Z,1263.00
2023-05-10T09:44:17.432Z,1310.00
2023-05-10T09:45:17.826Z,1316.00
2023-05-10T09:46:17.487Z,1325.00
2023-05-10T09:47:17.447Z,1332.00
2023-05-10T09:48:17.404Z,1351.00
2023-05-10T09:49:17.452Z,1385.00
2023-05-10T09:50:17.679Z,1388.00
2023-05-10T09:51:17.573Z,1406.00
2023-05-10T09:52:17.660Z,1380.00
2023-05-10T09:53:17.640Z,1409.00
2023-05-10T09:54:17.762Z,1431.00
2023-05-10T09:55:18.019Z,1423.00
2023-05-10T09:56:17.825Z,1426.00
2023-05-10T09:57:18.322Z,1394.00
2023-05-10T09:58:17.931Z,1413.00
2023-05-10T09:59:18.017Z,1426.00
2023-05-10T10:00:18.056Z,1365.00
2023-05-10T10:01:18.168Z,1350.00
2023-05-10T10:02:18.166Z,1323.00
2023-05-10T10:03:18.231Z,1348.00
2023-05-10T10:04:18.302Z,1419.00
2023-05-10T10:05:18.621Z,1414.00
2023-05-10T10:06:29.051Z,1411.00
2023-05-10T10:07:19.377Z,1412.00
2023-05-10T10:08:18.457Z,1412.00
2023-05-10T10:09:18.340Z,1413.00
2023-05-10T10:10:18.366Z,1407.00
2023-05-10T10:11:18.327Z,1406.00
2023-05-10T10:12:18.341Z,1393.00
2023-05-10T10:13:18.357Z,1405.00
2023-05-10T10:14:19.964Z,1351.00
2023-05-10T10:15:18.673Z,1366.00
2023-05-10T10:16:18.397Z,1384.00
2023-05-10T10:17:18.308Z,1401.00
2023-05-10T10:18:18.381Z,1410.00
2023-05-10T10:19:18.831Z,1415.00
2023-05-10T10:20:18.586Z,1421.00
2023-05-10T10:21:18.494Z,1425.00
2023-05-10T10:22:18.852Z,1416.00
2023-05-10T10:23:18.565Z,1382.00
2023-05-10T10:24:18.598Z,1391.00
2023-05-10T10:25:18.922Z,1407.00
2023-05-10T10:26:18.857Z,1392.00
2023-05-10T10:27:18.751Z,1425.00
2023-05-10T10:28:18.758Z,1415.00
2023-05-10T10:29:18.797Z,1436.00
2023-05-10T10:30:18.888Z,1471.00
2023-05-10T10:31:18.869Z,1497.00
2023-05-10T10:32:18.895Z,1500.00
2023-05-10T10:33:27.757Z,1501.00
2023-05-10T10:34:19.870Z,1503.00
2023-05-10T10:35:19.368Z,1502.00
2023-05-10T10:36:18.864Z,1442.00
2023-05-10T10:37:18.887Z,1440.00
2023-05-10T10:38:18.854Z,1442.00
2023-05-10T10:39:18.838Z,1523.00
2023-05-10T10:40:18.836Z,1617.00
2023-05-10T10:41:18.838Z,1641.00
2023-05-10T10:42:18.801Z,1635.00
2023-05-10T10:43:18.816Z,1635.00
2023-05-10T10:44:18.897Z,1598.00
2023-05-10T10:45:18.992Z,1641.00
2023-05-10T10:46:19.095Z,1684.00
2023-05-10T10:47:18.793Z,1683.00
2023-05-10T10:48:18.782Z,1683.00
2023-05-10T10:49:18.821Z,1650.00
2023-05-10T10:50:18.775Z,1657.00
2023-05-10T10:51:18.769Z,1677.00
2023-05-10T10:52:18.766Z,1632.00
2023-05-10T10:53:18.820Z,1640.00
2023-05-10T10:54:18.774Z,1656.00
2023-05-10T10:55:18.970Z,1648.00
2023-05-10T10:56:18.730Z,1680.00
2023-05-10T10:57:18.719Z,1701.00
2023-05-10T10:58:18.712Z,1673.00
2023-05-10T10:59:18.706Z,1637.00
2023-05-10T11:00:18.699Z,1635.00
2023-05-10T11:01:18.704Z,1643.00
2023-05-10T11:02:18.672Z,1688.00
2023-05-10T11:03:18.768Z,1643.00
2023-05-10T11:04:18.729Z,1634.00
2023-05-10T11:05:18.897Z,1660.00
2023-05-10T11:06:18.646Z,1589.00
2023-05-10T11:07:18.656Z,1612.00
2023-05-10T11:08:18.875Z,1638.00
2023-05-10T11:09:18.624Z,1664.00
2023-05-10T11:10:18.649Z,1611.00
2023-05-10T11:11:18.726Z,1568.00
2023-05-10T11:12:18.800Z,1510.00
2023-05-10T11:13:18.831Z,1511.00
2023-05-10T11:14:18.912Z,1508.00
2023-05-10T11:15:19.079Z,1500.00
2023-05-10T11:16:19.070Z,1494.00
2023-05-10T11:17:19.463Z,1513.00
2023-05-10T11:18:19.117Z,1504.00
2023-05-10T11:19:19.148Z,1482.00
2023-05-10T11:20:19.436Z,1418.00
2023-05-10T11:21:19.290Z,1407.00
2023-05-10T11:22:19.285Z,1379.00
2023-05-10T11:23:19.316Z,1365.00
2023-05-10T11:24:19.350Z,1311.00
2023-05-10T11:25:19.395Z,1309.00
2023-05-10T11:26:19.411Z,1275.00
2023-05-10T11:27:19.474Z,1237.00
2023-05-10T11:28:19.455Z,1203.00
2023-05-10T11:29:19.494Z,1183.00
2023-05-10T11:30:19.691Z,1119.00
2023-05-10T11:31:19.484Z,1121.00
2023-05-10T11:32:19.459Z,1105.00
2023-05-10T11:33:19.457Z,1055.00
2023-05-10T11:34:19.449Z,1006.00
2023-05-10T11:35:19.507Z,994.00
2023-05-10T11:36:19.472Z,997.00
2023-05-10T11:37:19.472Z,984.00
2023-05-10T11:38:19.463Z,971.00
2023-05-10T11:39:19.489Z,946.00
2023-05-10T11:40:19.570Z,952.00
2023-05-10T11:41:19.523Z,934.00
2023-05-10T11:42:19.485Z,908.00
2023-05-10T11:43:19.478Z,912.00
2023-05-10T11:44:19.468Z,876.00
2023-05-10T11:45:19.509Z,880.00
2023-05-10T11:46:19.501Z,820.00
2023-05-10T11:47:19.499Z,775.00
2023-05-10T11:48:19.622Z,745.00
2023-05-10T11:49:19.565Z,695.00
2023-05-10T11:50:19.687Z,682.00
2023-05-10T11:51:19.512Z,666.00
2023-05-10T11:52:19.550Z,662.00
2023-05-10T11:53:19.582Z,645.00
2023-05-10T11:54:19.564Z,639.00
2023-05-10T11:55:19.577Z,643.00
2023-05-10T11:56:19.543Z,665.00
2023-05-10T11:57:19.574Z,663.00
2023-05-10T11:58:19.550Z,657.00
2023-05-10T11:59:19.580Z,663.00
2023-05-10T12:00:19.923Z,655.00
2023-05-10T12:01:19.663Z,652.00
2023-05-10T12:02:19.673Z,658.00
2023-05-10T12:03:19.718Z,660.00
2023-05-10T12:04:19.932Z,666.00
2023-05-10T12:05:19.601Z,662.00
2023-05-10T12:06:19.577Z,697.00